sensor_id;sensor_type;location;lat;lon;timestamp;P1;durP1;ratioP1;P2;durP2;ratioP2
19364;SDS011;9818;48.382;10.850;2022-10-10T01:20:01;3.60;;;2.97;;
19364;SDS011;9818;48.382;10.850;2022-10-10T01:25:50;4.33;;;3.57;;
19364;SDS011;9818;48.382;10.850;2022-10-10T01:28:36;5.50;;;3.53;;
19364;SDS011;9818;48.382;10.850;2022-10-10T01:31:09;4.83;;;3.50;;
19364;SDS011;9818;48.382;10.850;2022-10-10T01:33:46;4.17;;;3.30;;
19364;SDS011;9818;48.382;10.850;2022-10-10T01:36:25;8.70;;;3.37;;
19364;SDS011;9818;48.382;10.850;2022-10-10T01:39:01;4.40;;;3.30;;
19364;SDS011;9818;48.382;10.850;2022-10-10T01:41:35;3.93;;;3.33;;
19364;SDS011;9818;48.382;10.850;2022-10-10T01:44:10;4.87;;;3.47;;
19364;SDS011;9818;48.382;10.850;2022-10-10T01:46:39;4.23;;;3.40;;
19364;SDS011;9818;48.382;10.850;2022-10-10T01:49:08;5.97;;;3.80;;
19364;SDS011;9818;48.382;10.850;2022-10-10T01:51:42;3.63;;;3.30;;
19364;SDS011;9818;48.382;10.850;2022-10-10T01:54:24;6.07;;;4.10;;
19364;SDS011;9818;48.382;10.850;2022-10-10T01:57:03;3.97;;;3.43;;
19364;SDS011;9818;48.382;10.850;2022-10-10T01:59:49;4.93;;;3.80;;
19364;SDS011;9818;48.382;10.850;2022-10-10T02:02:32;5.53;;;4.13;;
19364;SDS011;9818;48.382;10.850;2022-10-10T02:05:11;6.00;;;4.77;;
19364;SDS011;9818;48.382;10.850;2022-10-10T02:07:48;6.07;;;3.67;;
19364;SDS011;9818;48.382;10.850;2022-10-10T02:10:21;4.83;;;4.07;;
19364;SDS011;9818;48.382;10.850;2022-10-10T02:12:52;5.67;;;4.17;;
19364;SDS011;9818;48.382;10.850;2022-10-10T02:15:25;5.87;;;4.30;;
19364;SDS011;9818;48.382;10.850;2022-10-10T02:18:00;5.37;;;4.37;;
19364;SDS011;9818;48.382;10.850;2022-10-10T02:20:29;6.83;;;4.10;;
19364;SDS011;9818;48.382;10.850;2022-10-10T02:22:59;4.83;;;4.13;;
19364;SDS011;9818;48.382;10.850;2022-10-10T02:25:28;7.73;;;4.30;;
19364;SDS011;9818;48.382;10.850;2022-10-10T02:28:04;5.23;;;4.30;;
19364;SDS011;9818;48.382;10.850;2022-10-10T02:30:39;8.90;;;4.40;;
19364;SDS011;9818;48.382;10.850;2022-10-10T02:33:12;6.43;;;4.50;;
19364;SDS011;9818;48.382;10.850;2022-10-10T02:35:46;4.87;;;4.30;;
19364;SDS011;9818;48.382;10.850;2022-10-10T02:38:17;6.30;;;4.67;;
19364;SDS011;9818;48.382;10.850;2022-10-10T02:40:47;5.90;;;4.67;;
19364;SDS011;9818;48.382;10.850;2022-10-10T02:43:17;7.67;;;5.30;;
19364;SDS011;9818;48.382;10.850;2022-10-10T02:45:49;7.80;;;5.20;;
19364;SDS011;9818;48.382;10.850;2022-10-10T02:48:18;6.47;;;4.87;;
19364;SDS011;9818;48.382;10.850;2022-10-10T02:50:47;6.17;;;5.07;;
19364;SDS011;9818;48.382;10.850;2022-10-10T02:53:15;7.40;;;5.00;;
19364;SDS011;9818;48.382;10.850;2022-10-10T02:55:44;6.67;;;5.40;;
19364;SDS011;9818;48.382;10.850;2022-10-10T02:58:13;7.77;;;5.47;;
19364;SDS011;9818;48.382;10.850;2022-10-10T03:00:42;5.33;;;4.83;;
19364;SDS011;9818;48.382;10.850;2022-10-10T03:03:13;5.87;;;4.77;;
19364;SDS011;9818;48.382;10.850;2022-10-10T03:05:42;6.33;;;5.27;;
19364;SDS011;9818;48.382;10.850;2022-10-10T03:08:11;5.70;;;5.03;;
19364;SDS011;9818;48.382;10.850;2022-10-10T03:10:40;10.40;;;6.47;;
19364;SDS011;9818;48.382;10.850;2022-10-10T03:13:08;7.03;;;5.43;;
19364;SDS011;9818;48.382;10.850;2022-10-10T03:15:37;7.77;;;5.17;;
19364;SDS011;9818;48.382;10.850;2022-10-10T03:18:06;8.13;;;5.87;;
19364;SDS011;9818;48.382;10.850;2022-10-10T03:20:37;6.47;;;5.37;;
19364;SDS011;9818;48.382;10.850;2022-10-10T03:23:06;8.73;;;6.20;;
19364;SDS011;9818;48.382;10.850;2022-10-10T03:25:38;10.33;;;6.63;;
19364;SDS011;9818;48.382;10.850;2022-10-10T03:28:08;7.40;;;5.80;;
19364;SDS011;9818;48.382;10.850;2022-10-10T03:30:37;7.57;;;5.90;;
19364;SDS011;9818;48.382;10.850;2022-10-10T03:33:06;7.53;;;5.73;;
19364;SDS011;9818;48.382;10.850;2022-10-10T03:35:38;7.20;;;5.87;;
19364;SDS011;9818;48.382;10.850;2022-10-10T03:38:07;7.03;;;5.87;;
19364;SDS011;9818;48.382;10.850;2022-10-10T03:40:37;7.13;;;6.17;;
19364;SDS011;9818;48.382;10.850;2022-10-10T03:43:06;6.90;;;5.83;;
19364;SDS011;9818;48.382;10.850;2022-10-10T03:45:36;7.83;;;6.57;;
19364;SDS011;9818;48.382;10.850;2022-10-10T03:48:04;7.60;;;6.33;;
19364;SDS011;9818;48.382;10.850;2022-10-10T03:50:33;7.63;;;6.17;;
19364;SDS011;9818;48.382;10.850;2022-10-10T03:53:05;7.77;;;6.00;;
19364;SDS011;9818;48.382;10.850;2022-10-10T03:55:33;9.50;;;6.53;;
19364;SDS011;9818;48.382;10.850;2022-10-10T03:58:02;7.33;;;6.50;;
19364;SDS011;9818;48.382;10.850;2022-10-10T04:00:31;7.40;;;6.07;;
19364;SDS011;9818;48.382;10.850;2022-10-10T04:03:00;9.27;;;6.27;;
19364;SDS011;9818;48.382;10.850;2022-10-10T04:05:31;9.03;;;6.40;;
19364;SDS011;9818;48.382;10.850;2022-10-10T04:08:00;8.67;;;6.70;;
19364;SDS011;9818;48.382;10.850;2022-10-10T04:10:32;6.83;;;6.13;;
19364;SDS011;9818;48.382;10.850;2022-10-10T04:13:01;7.93;;;6.40;;
19364;SDS011;9818;48.382;10.850;2022-10-10T04:15:30;8.73;;;6.50;;
19364;SDS011;9818;48.382;10.850;2022-10-10T04:17:59;9.60;;;7.13;;
19364;SDS011;9818;48.382;10.850;2022-10-10T04:20:28;7.20;;;6.27;;
19364;SDS011;9818;48.382;10.850;2022-10-10T04:22:56;7.53;;;6.13;;
19364;SDS011;9818;48.382;10.850;2022-10-10T04:25:25;6.97;;;5.90;;
19364;SDS011;9818;48.382;10.850;2022-10-10T04:27:56;8.00;;;5.60;;
19364;SDS011;9818;48.382;10.850;2022-10-10T04:30:25;9.47;;;7.83;;
19364;SDS011;9818;48.382;10.850;2022-10-10T04:32:55;8.77;;;7.00;;
19364;SDS011;9818;48.382;10.850;2022-10-10T04:35:24;8.37;;;7.03;;
19364;SDS011;9818;48.382;10.850;2022-10-10T04:37:53;8.37;;;6.87;;
19364;SDS011;9818;48.382;10.850;2022-10-10T04:40:21;9.03;;;7.03;;
19364;SDS011;9818;48.382;10.850;2022-10-10T04:42:50;10.50;;;7.20;;
19364;SDS011;9818;48.382;10.850;2022-10-10T04:45:22;10.37;;;7.57;;
19364;SDS011;9818;48.382;10.850;2022-10-10T04:47:52;9.97;;;6.83;;
19364;SDS011;9818;48.382;10.850;2022-10-10T04:50:21;7.23;;;6.37;;
19364;SDS011;9818;48.382;10.850;2022-10-10T04:52:50;11.17;;;7.37;;
19364;SDS011;9818;48.382;10.850;2022-10-10T04:55:19;11.00;;;7.50;;
19364;SDS011;9818;48.382;10.850;2022-10-10T04:57:48;8.60;;;6.73;;
19364;SDS011;9818;48.382;10.850;2022-10-10T05:00:16;8.67;;;6.97;;
19364;SDS011;9818;48.382;10.850;2022-10-10T05:02:48;8.23;;;6.63;;
19364;SDS011;9818;48.382;10.850;2022-10-10T05:05:17;7.53;;;6.57;;
19364;SDS011;9818;48.382;10.850;2022-10-10T05:07:45;10.07;;;6.73;;
19364;SDS011;9818;48.382;10.850;2022-10-10T05:10:14;8.57;;;6.93;;
19364;SDS011;9818;48.382;10.850;2022-10-10T05:12:43;7.33;;;5.73;;
19364;SDS011;9818;48.382;10.850;2022-10-10T05:15:12;11.63;;;6.67;;
19364;SDS011;9818;48.382;10.850;2022-10-10T05:17:41;8.40;;;6.27;;
19364;SDS011;9818;48.382;10.850;2022-10-10T05:20:13;8.00;;;6.27;;
19364;SDS011;9818;48.382;10.850;2022-10-10T05:22:41;9.27;;;6.17;;
19364;SDS011;9818;48.382;10.850;2022-10-10T05:25:10;9.03;;;6.23;;
19364;SDS011;9818;48.382;10.850;2022-10-10T05:27:39;7.87;;;5.87;;
19364;SDS011;9818;48.382;10.850;2022-10-10T05:30:09;7.83;;;5.90;;
19364;SDS011;9818;48.382;10.850;2022-10-10T05:32:38;8.17;;;6.57;;
19364;SDS011;9818;48.382;10.850;2022-10-10T05:35:07;8.30;;;6.63;;
19364;SDS011;9818;48.382;10.850;2022-10-10T05:37:39;8.73;;;6.57;;
19364;SDS011;9818;48.382;10.850;2022-10-10T05:40:08;11.23;;;7.23;;
19364;SDS011;9818;48.382;10.850;2022-10-10T05:42:37;9.00;;;6.87;;
19364;SDS011;9818;48.382;10.850;2022-10-10T05:45:06;7.83;;;6.03;;
19364;SDS011;9818;48.382;10.850;2022-10-10T05:47:35;7.83;;;6.17;;
19364;SDS011;9818;48.382;10.850;2022-10-10T05:50:04;7.70;;;6.20;;
19364;SDS011;9818;48.382;10.850;2022-10-10T05:52:34;7.87;;;6.50;;
19364;SDS011;9818;48.382;10.850;2022-10-10T05:55:06;7.67;;;5.17;;
19364;SDS011;9818;48.382;10.850;2022-10-10T05:57:35;5.77;;;5.10;;
19364;SDS011;9818;48.382;10.850;2022-10-10T06:00:04;5.70;;;5.10;;
19364;SDS011;9818;48.382;10.850;2022-10-10T06:02:34;5.10;;;4.60;;
19364;SDS011;9818;48.382;10.850;2022-10-10T06:05:03;5.77;;;4.50;;
19364;SDS011;9818;48.382;10.850;2022-10-10T06:07:32;5.57;;;4.60;;
19364;SDS011;9818;48.382;10.850;2022-10-10T06:10:02;8.57;;;4.80;;
19364;SDS011;9818;48.382;10.850;2022-10-10T06:12:35;4.70;;;4.20;;
19364;SDS011;9818;48.382;10.850;2022-10-10T06:15:04;4.97;;;4.47;;
19364;SDS011;9818;48.382;10.850;2022-10-10T06:17:34;5.37;;;4.60;;
19364;SDS011;9818;48.382;10.850;2022-10-10T06:20:02;4.63;;;4.13;;
19364;SDS011;9818;48.382;10.850;2022-10-10T06:37:25;5.50;;;4.10;;
19364;SDS011;9818;48.382;10.850;2022-10-10T06:39:54;4.00;;;3.67;;
19364;SDS011;9818;48.382;10.850;2022-10-10T06:42:22;3.77;;;3.37;;
19364;SDS011;9818;48.382;10.850;2022-10-10T06:44:54;5.20;;;3.80;;
19364;SDS011;9818;48.382;10.850;2022-10-10T06:47:22;3.23;;;2.93;;
19364;SDS011;9818;48.382;10.850;2022-10-10T06:49:51;3.43;;;3.13;;
19364;SDS011;9818;48.382;10.850;2022-10-10T06:52:20;4.13;;;3.20;;
19364;SDS011;9818;48.382;10.850;2022-10-10T07:56:52;3.05;;;2.25;;
19364;SDS011;9818;48.382;10.850;2022-10-10T08:01:50;3.90;;;2.40;;
19364;SDS011;9818;48.382;10.850;2022-10-10T08:04:19;3.20;;;2.73;;
19364;SDS011;9818;48.382;10.850;2022-10-10T08:06:48;87.23;;;13.50;;
19364;SDS011;9818;48.382;10.850;2022-10-10T08:09:16;7.50;;;4.03;;
19364;SDS011;9818;48.382;10.850;2022-10-10T08:11:48;4.10;;;3.07;;
19364;SDS011;9818;48.382;10.850;2022-10-10T08:14:16;4.03;;;3.07;;
19364;SDS011;9818;48.382;10.850;2022-10-10T08:16:45;3.60;;;2.93;;
19364;SDS011;9818;48.382;10.850;2022-10-10T08:19:14;6.00;;;2.77;;
19364;SDS011;9818;48.382;10.850;2022-10-10T08:21:42;6.00;;;2.90;;
19364;SDS011;9818;48.382;10.850;2022-10-10T08:24:11;5.53;;;3.00;;
19364;SDS011;9818;48.382;10.850;2022-10-10T08:26:40;3.67;;;3.03;;
19364;SDS011;9818;48.382;10.850;2022-10-10T08:29:11;3.03;;;2.80;;
19364;SDS011;9818;48.382;10.850;2022-10-10T08:31:39;4.13;;;2.63;;
19364;SDS011;9818;48.382;10.850;2022-10-10T08:34:08;6.10;;;3.10;;
19364;SDS011;9818;48.382;10.850;2022-10-10T08:39:05;4.87;;;3.13;;
19364;SDS011;9818;48.382;10.850;2022-10-10T08:41:37;4.43;;;3.13;;
19364;SDS011;9818;48.382;10.850;2022-10-10T08:44:14;4.30;;;3.30;;
19364;SDS011;9818;48.382;10.850;2022-10-10T08:46:47;4.63;;;3.20;;
19364;SDS011;9818;48.382;10.850;2022-10-10T08:49:20;3.87;;;3.30;;
19364;SDS011;9818;48.382;10.850;2022-10-10T08:51:55;4.40;;;3.17;;
19364;SDS011;9818;48.382;10.850;2022-10-10T08:54:28;4.27;;;3.30;;
19364;SDS011;9818;48.382;10.850;2022-10-10T08:56:59;5.00;;;3.53;;
19364;SDS011;9818;48.382;10.850;2022-10-10T08:59:34;3.97;;;3.40;;
19364;SDS011;9818;48.382;10.850;2022-10-10T09:05:01;5.97;;;3.37;;
19364;SDS011;9818;48.382;10.850;2022-10-10T09:07:34;3.73;;;3.33;;
19364;SDS011;9818;48.382;10.850;2022-10-10T09:10:22;3.60;;;3.30;;
19364;SDS011;9818;48.382;10.850;2022-10-10T09:13:01;3.67;;;3.37;;
19364;SDS011;9818;48.382;10.850;2022-10-10T09:15:40;4.07;;;3.40;;
19364;SDS011;9818;48.382;10.850;2022-10-10T09:18:17;6.47;;;3.10;;
19364;SDS011;9818;48.382;10.850;2022-10-10T09:20:57;6.57;;;3.40;;
19364;SDS011;9818;48.382;10.850;2022-10-10T09:23:34;4.57;;;3.40;;
19364;SDS011;9818;48.382;10.850;2022-10-10T09:26:08;3.57;;;2.97;;
19364;SDS011;9818;48.382;10.850;2022-10-10T09:28:42;5.07;;;2.90;;
19364;SDS011;9818;48.382;10.850;2022-10-10T09:31:18;5.53;;;3.33;;
19364;SDS011;9818;48.382;10.850;2022-10-10T09:33:53;4.30;;;3.00;;
19364;SDS011;9818;48.382;10.850;2022-10-10T09:36:26;4.27;;;3.13;;
19364;SDS011;9818;48.382;10.850;2022-10-10T09:38:59;4.97;;;3.00;;
19364;SDS011;9818;48.382;10.850;2022-10-10T09:41:32;3.40;;;3.03;;
19364;SDS011;9818;48.382;10.850;2022-10-10T09:44:08;4.57;;;3.07;;
19364;SDS011;9818;48.382;10.850;2022-10-10T09:46:41;3.93;;;3.00;;
19364;SDS011;9818;48.382;10.850;2022-10-10T09:49:10;3.57;;;3.27;;
19364;SDS011;9818;48.382;10.850;2022-10-10T09:51:42;4.60;;;2.73;;
19364;SDS011;9818;48.382;10.850;2022-10-10T09:54:11;5.30;;;3.07;;
19364;SDS011;9818;48.382;10.850;2022-10-10T09:56:43;3.93;;;2.70;;
19364;SDS011;9818;48.382;10.850;2022-10-10T10:02:10;2.90;;;2.60;;
19364;SDS011;9818;48.382;10.850;2022-10-10T10:04:41;3.60;;;2.73;;
19364;SDS011;9818;48.382;10.850;2022-10-10T10:07:17;3.90;;;3.50;;
19364;SDS011;9818;48.382;10.850;2022-10-10T10:09:52;20.07;;;9.23;;
19364;SDS011;9818;48.382;10.850;2022-10-10T10:12:23;8.27;;;5.00;;
19364;SDS011;9818;48.382;10.850;2022-10-10T10:14:57;6.87;;;3.37;;
19364;SDS011;9818;48.382;10.850;2022-10-10T10:17:31;7.57;;;3.33;;
19364;SDS011;9818;48.382;10.850;2022-10-10T10:20:00;3.50;;;2.80;;
19364;SDS011;9818;48.382;10.850;2022-10-10T10:22:32;3.30;;;2.57;;
19364;SDS011;9818;48.382;10.850;2022-10-10T10:30:45;2.65;;;1.80;;
19364;SDS011;9818;48.382;10.850;2022-10-10T10:33:21;3.57;;;1.60;;
19364;SDS011;9818;48.382;10.850;2022-10-10T10:35:58;3.33;;;2.15;;
19364;SDS011;9818;48.382;10.850;2022-10-10T10:38:37;3.17;;;1.70;;
19364;SDS011;9818;48.382;10.850;2022-10-10T10:41:13;2.30;;;1.90;;
19364;SDS011;9818;48.382;10.850;2022-10-10T10:43:53;2.83;;;1.73;;
19364;SDS011;9818;48.382;10.850;2022-10-10T10:46:37;3.23;;;2.00;;
19364;SDS011;9818;48.382;10.850;2022-10-10T10:49:19;2.90;;;1.93;;
19364;SDS011;9818;48.382;10.850;2022-10-10T10:52:04;3.23;;;1.87;;
19364;SDS011;9818;48.382;10.850;2022-10-10T10:54:48;3.70;;;2.17;;
19364;SDS011;9818;48.382;10.850;2022-10-10T10:57:32;2.57;;;1.90;;
19364;SDS011;9818;48.382;10.850;2022-10-10T11:00:08;3.83;;;1.97;;
19364;SDS011;9818;48.382;10.850;2022-10-10T11:02:40;3.00;;;1.80;;
19364;SDS011;9818;48.382;10.850;2022-10-10T11:05:36;2.33;;;2.00;;
19364;SDS011;9818;48.382;10.850;2022-10-10T11:08:21;2.17;;;1.90;;
19364;SDS011;9818;48.382;10.850;2022-10-10T11:11:03;3.60;;;1.97;;
19364;SDS011;9818;48.382;10.850;2022-10-10T11:13:45;2.60;;;2.00;;
19364;SDS011;9818;48.382;10.850;2022-10-10T11:16:21;6.17;;;2.00;;
19364;SDS011;9818;48.382;10.850;2022-10-10T11:19:05;2.23;;;1.70;;
19364;SDS011;9818;48.382;10.850;2022-10-10T11:21:47;4.03;;;1.77;;
19364;SDS011;9818;48.382;10.850;2022-10-10T11:24:24;2.77;;;1.83;;
19364;SDS011;9818;48.382;10.850;2022-10-10T11:27:02;3.93;;;1.80;;
19364;SDS011;9818;48.382;10.850;2022-10-10T11:29:36;2.77;;;1.60;;
19364;SDS011;9818;48.382;10.850;2022-10-10T11:32:13;2.33;;;1.70;;
19364;SDS011;9818;48.382;10.850;2022-10-10T11:34:51;4.27;;;1.73;;
19364;SDS011;9818;48.382;10.850;2022-10-10T11:37:33;5.00;;;2.00;;
19364;SDS011;9818;48.382;10.850;2022-10-10T11:40:21;2.73;;;2.13;;
19364;SDS011;9818;48.382;10.850;2022-10-10T11:42:55;4.27;;;1.80;;
19364;SDS011;9818;48.382;10.850;2022-10-10T11:48:00;2.53;;;2.00;;
19364;SDS011;9818;48.382;10.850;2022-10-10T11:50:35;1.90;;;1.70;;
19364;SDS011;9818;48.382;10.850;2022-10-10T11:53:11;2.43;;;2.00;;
19364;SDS011;9818;48.382;10.850;2022-10-10T11:55:46;2.10;;;1.70;;
19364;SDS011;9818;48.382;10.850;2022-10-10T11:58:26;1.77;;;1.53;;
19364;SDS011;9818;48.382;10.850;2022-10-10T12:01:02;3.70;;;1.70;;
19364;SDS011;9818;48.382;10.850;2022-10-10T12:03:33;4.20;;;2.10;;
19364;SDS011;9818;48.382;10.850;2022-10-10T12:06:03;4.30;;;2.00;;
19364;SDS011;9818;48.382;10.850;2022-10-10T12:08:41;5.90;;;1.97;;
19364;SDS011;9818;48.382;10.850;2022-10-10T12:11:17;4.17;;;1.97;;
19364;SDS011;9818;48.382;10.850;2022-10-10T12:13:52;4.80;;;2.07;;
19364;SDS011;9818;48.382;10.850;2022-10-10T12:16:25;2.70;;;2.20;;
19364;SDS011;9818;48.382;10.850;2022-10-10T12:18:58;3.10;;;2.37;;
19364;SDS011;9818;48.382;10.850;2022-10-10T12:48:18;5.57;;;1.93;;
19364;SDS011;9818;48.382;10.850;2022-10-10T12:50:52;2.03;;;1.83;;
19364;SDS011;9818;48.382;10.850;2022-10-10T12:53:24;3.53;;;1.90;;
19364;SDS011;9818;48.382;10.850;2022-10-10T12:55:56;2.27;;;1.77;;
19364;SDS011;9818;48.382;10.850;2022-10-10T13:33:47;3.37;;;2.07;;
19364;SDS011;9818;48.382;10.850;2022-10-10T13:43:45;2.20;;;1.90;;
19364;SDS011;9818;48.382;10.850;2022-10-10T14:01:21;4.70;;;2.10;;
19364;SDS011;9818;48.382;10.850;2022-10-10T14:04:21;4.47;;;1.93;;
19364;SDS011;9818;48.382;10.850;2022-10-10T14:06:54;2.93;;;1.53;;
19364;SDS011;9818;48.382;10.850;2022-10-10T14:09:27;3.90;;;1.60;;
19364;SDS011;9818;48.382;10.850;2022-10-10T14:11:59;3.80;;;1.77;;
19364;SDS011;9818;48.382;10.850;2022-10-10T14:14:34;5.90;;;2.40;;
19364;SDS011;9818;48.382;10.850;2022-10-10T14:17:07;4.63;;;2.10;;
19364;SDS011;9818;48.382;10.850;2022-10-10T14:19:40;3.30;;;1.77;;
19364;SDS011;9818;48.382;10.850;2022-10-10T14:22:10;3.13;;;1.70;;
19364;SDS011;9818;48.382;10.850;2022-10-10T14:24:39;5.97;;;1.80;;
19364;SDS011;9818;48.382;10.850;2022-10-10T14:27:11;7.17;;;1.60;;
19364;SDS011;9818;48.382;10.850;2022-10-10T14:29:47;4.10;;;1.90;;
19364;SDS011;9818;48.382;10.850;2022-10-10T14:32:17;5.13;;;2.10;;
19364;SDS011;9818;48.382;10.850;2022-10-10T14:34:48;6.27;;;1.83;;
19364;SDS011;9818;48.382;10.850;2022-10-10T14:37:18;7.13;;;2.37;;
19364;SDS011;9818;48.382;10.850;2022-10-10T14:39:49;4.53;;;1.90;;
19364;SDS011;9818;48.382;10.850;2022-10-10T14:42:19;5.63;;;1.80;;
19364;SDS011;9818;48.382;10.850;2022-10-10T14:44:49;4.50;;;2.10;;
19364;SDS011;9818;48.382;10.850;2022-10-10T14:47:18;3.70;;;1.77;;
19364;SDS011;9818;48.382;10.850;2022-10-10T14:49:50;6.87;;;2.20;;
19364;SDS011;9818;48.382;10.850;2022-10-10T14:52:21;5.87;;;2.20;;
19364;SDS011;9818;48.382;10.850;2022-10-10T14:54:50;4.97;;;1.80;;
19364;SDS011;9818;48.382;10.850;2022-10-10T14:57:18;5.03;;;2.07;;
19364;SDS011;9818;48.382;10.850;2022-10-10T14:59:47;2.50;;;1.60;;
19364;SDS011;9818;48.382;10.850;2022-10-10T15:02:16;2.53;;;1.77;;
19364;SDS011;9818;48.382;10.850;2022-10-10T15:04:46;7.47;;;2.00;;
19364;SDS011;9818;48.382;10.850;2022-10-10T15:07:18;4.73;;;1.80;;
19364;SDS011;9818;48.382;10.850;2022-10-10T15:09:47;2.90;;;2.00;;
19364;SDS011;9818;48.382;10.850;2022-10-10T15:12:16;4.97;;;2.00;;
19364;SDS011;9818;48.382;10.850;2022-10-10T15:14:45;4.03;;;2.03;;
19364;SDS011;9818;48.382;10.850;2022-10-10T15:17:14;3.83;;;2.00;;
19364;SDS011;9818;48.382;10.850;2022-10-10T15:19:43;3.17;;;2.00;;
19364;SDS011;9818;48.382;10.850;2022-10-10T15:22:14;5.07;;;1.93;;
19364;SDS011;9818;48.382;10.850;2022-10-10T15:24:43;5.33;;;1.93;;
19364;SDS011;9818;48.382;10.850;2022-10-10T15:27:12;5.33;;;2.07;;
19364;SDS011;9818;48.382;10.850;2022-10-10T15:29:40;4.23;;;2.33;;
19364;SDS011;9818;48.382;10.850;2022-10-10T15:32:09;3.83;;;2.20;;
19364;SDS011;9818;48.382;10.850;2022-10-10T15:34:38;4.87;;;1.97;;
19364;SDS011;9818;48.382;10.850;2022-10-10T15:37:07;4.33;;;1.73;;
19364;SDS011;9818;48.382;10.850;2022-10-10T16:14:31;5.97;;;2.33;;
19364;SDS011;9818;48.382;10.850;2022-10-10T16:17:00;4.40;;;2.33;;
19364;SDS011;9818;48.382;10.850;2022-10-10T16:19:29;7.17;;;2.30;;
19364;SDS011;9818;48.382;10.850;2022-10-10T16:21:58;11.40;;;2.50;;
19364;SDS011;9818;48.382;10.850;2022-10-10T16:24:26;5.50;;;2.77;;
19364;SDS011;9818;48.382;10.850;2022-10-10T16:26:55;4.63;;;2.10;;
19364;SDS011;9818;48.382;10.850;2022-10-10T16:29:28;4.50;;;2.30;;
19364;SDS011;9818;48.382;10.850;2022-10-10T16:31:58;5.73;;;2.43;;
19364;SDS011;9818;48.382;10.850;2022-10-10T16:34:27;5.80;;;2.73;;
19364;SDS011;9818;48.382;10.850;2022-10-10T16:36:57;5.07;;;2.33;;
19364;SDS011;9818;48.382;10.850;2022-10-10T16:39:27;4.00;;;2.67;;
19364;SDS011;9818;48.382;10.850;2022-10-10T16:41:57;5.43;;;2.27;;
19364;SDS011;9818;48.382;10.850;2022-10-10T16:44:30;6.70;;;2.60;;
19364;SDS011;9818;48.382;10.850;2022-10-10T16:47:00;4.90;;;2.40;;
19364;SDS011;9818;48.382;10.850;2022-10-10T16:49:29;6.17;;;2.57;;
